Time;durP1;ratioP1;P1;durP2;ratioP2;P2;SDS_P1;SDS_P2;PMS_P1;PMS_P2;Temp;Humidity;BMP_temperature;BMP_pressure;BME280_temperature;BME280_humidity;BME280_pressure;Samples;Min_cycle;Max_cycle;Signal;HPM_P1;HPM_P2
2021/01/29 00:02:24;;;;;;;23.08;9.63;;;-2.10;99.90;;;;;;5073355;28;20035;-77
2021/01/29 00:04:50;;;;;;;21.30;12.15;;;-2.10;99.90;;;;;;5089234;28;20089;-77
2021/01/29 00:07:16;;;;;;;18.42;9.85;;;-2.10;99.90;;;;;;5092619;28;20067;-77
2021/01/29 00:09:42;;;;;;;21.65;10.32;;;-2.10;99.90;;;;;;5091954;28;20062;-77
2021/01/29 00:12:08;;;;;;;17.50;10.25;;;-2.10;99.90;;;;;;5093294;28;20032;-77
2021/01/29 00:14:34;;;;;;;21.90;10.27;;;-2.10;99.90;;;;;;5081840;28;20033;-77
2021/01/29 00:17:00;;;;;;;18.95;10.40;;;-2.00;99.90;;;;;;5073045;28;20476;-77
2021/01/29 00:19:25;;;;;;;18.27;9.63;;;-2.00;99.90;;;;;;5073075;28;20039;-77
2021/01/29 00:21:51;;;;;;;16.10;10.23;;;-2.00;99.90;;;;;;5071735;28;20020;-77
2021/01/29 00:24:17;;;;;;;19.48;9.85;;;-2.00;99.90;;;;;;5086135;28;20020;-77
2021/01/29 00:26:42;;;;;;;19.73;10.65;;;-1.90;99.90;;;;;;5092902;28;20074;-76
2021/01/29 00:29:08;;;;;;;20.77;9.10;;;-1.90;99.90;;;;;;5091945;28;20035;-77
2021/01/29 00:31:34;;;;;;;19.48;11.30;;;-2.00;99.90;;;;;;5093074;28;20020;-77
2021/01/29 00:33:59;;;;;;;15.48;9.40;;;-2.00;99.90;;;;;;5082905;28;20131;-76
2021/01/29 00:36:25;;;;;;;16.48;9.98;;;-2.00;99.90;;;;;;5072834;28;20059;-76
2021/01/29 00:38:50;;;;;;;13.73;8.77;;;-2.10;99.90;;;;;;5071334;28;20029;-77
2021/01/29 00:41:21;;;;;;;26.25;9.77;;;-2.10;99.90;;;;;;5086500;28;20081;-76
2021/01/29 00:43:46;;;;;;;16.95;10.05;;;-2.20;99.90;;;;;;5091411;28;20030;-76
2021/01/29 00:46:12;;;;;;;23.88;9.48;;;-2.20;99.90;;;;;;5092592;28;20028;-77
2021/01/29 00:48:37;;;;;;;15.98;10.05;;;-2.20;99.90;;;;;;5092862;28;20021;-77
2021/01/29 00:51:03;;;;;;;18.95;9.63;;;-2.20;99.90;;;;;;5083042;28;20052;-77
2021/01/29 00:53:29;;;;;;;15.13;9.82;;;-2.20;99.90;;;;;;5072308;28;20032;-77
2021/01/29 00:55:54;;;;;;;17.48;9.10;;;-2.10;99.90;;;;;;5071986;28;20028;-76
2021/01/29 00:58:20;;;;;;;16.63;9.70;;;-2.10;99.90;;;;;;5072323;28;20051;-77
2021/01/29 01:00:45;;;;;;;14.73;9.45;;;-2.10;99.90;;;;;;5075784;28;20149;-76
2021/01/29 01:03:11;;;;;;;13.07;8.30;;;-2.00;99.90;;;;;;5092496;28;20024;-77
2021/01/29 01:05:38;;;;;;;19.92;9.30;;;-2.00;99.90;;;;;;5092288;28;20016;-77
2021/01/29 01:08:04;;;;;;;20.40;10.20;;;-2.00;99.90;;;;;;5087436;28;20131;-76
2021/01/29 01:10:30;;;;;;;23.80;11.40;;;-2.00;99.90;;;;;;5072070;28;20104;-77
2021/01/29 01:12:55;;;;;;;15.30;9.77;;;-1.90;99.90;;;;;;5071967;28;20040;-76
2021/01/29 01:15:24;;;;;;;12.20;8.85;;;-1.90;99.90;;;;;;5071685;28;20039;-76
2021/01/29 01:17:52;;;;;;;18.33;9.98;;;-1.80;99.90;;;;;;5071926;28;20024;-77
2021/01/29 01:20:22;;;;;;;15.60;10.50;;;-1.80;99.90;;;;;;5071999;28;20013;-77
2021/01/29 01:22:47;;;;;;;16.90;9.85;;;-1.80;99.90;;;;;;5071865;28;20032;-76
2021/01/29 01:25:14;;;;;;;15.25;10.13;;;-1.80;99.90;;;;;;5071652;28;20020;-77
2021/01/29 01:27:40;;;;;;;20.70;9.95;;;-1.70;99.90;;;;;;5071847;28;20051;-76
2021/01/29 01:30:09;;;;;;;22.50;10.63;;;-1.70;99.90;;;;;;5087291;28;20496;-77
2021/01/29 01:32:35;;;;;;;19.70;10.23;;;-1.70;99.90;;;;;;5091991;28;20073;-77
2021/01/29 01:35:00;;;;;;;24.23;11.18;;;-1.70;99.90;;;;;;5091940;28;20560;-76
2021/01/29 01:37:26;;;;;;;20.23;12.23;;;-1.70;99.90;;;;;;5091961;28;20028;-76
2021/01/29 01:39:52;;;;;;;29.52;13.13;;;-1.70;99.90;;;;;;5072001;28;20029;-76
2021/01/29 01:42:17;;;;;;;19.38;12.05;;;-1.60;99.90;;;;;;5071618;28;20016;-76
2021/01/29 01:44:44;;;;;;;19.90;10.45;;;-1.60;99.90;;;;;;5070233;28;20032;-77
2021/01/29 01:47:29;;;;;;;24.08;11.40;;;-1.60;99.90;;;;;;5071774;28;20071;-76
2021/01/29 01:50:01;;;;;;;18.77;12.10;;;-1.60;99.90;;;;;;5088723;28;20028;-76
2021/01/29 01:52:34;;;;;;;22.05;11.55;;;-1.60;99.90;;;;;;5091832;28;20089;-77
2021/01/29 01:55:08;;;;;;;27.77;12.40;;;-1.50;99.90;;;;;;5091670;28;20058;-76
2021/01/29 01:57:35;;;;;;;24.48;11.48;;;-1.60;99.90;;;;;;5093219;28;20024;-76
2021/01/29 02:00:07;;;;;;;20.08;11.50;;;-1.50;99.90;;;;;;5080657;28;20032;-77
2021/01/29 02:02:36;;;;;;;26.38;11.45;;;-1.50;99.90;;;;;;5075535;28;20023;-76
2021/01/29 02:05:08;;;;;;;22.38;12.02;;;-1.50;99.90;;;;;;5075587;28;20024;-76
2021/01/29 02:07:40;;;;;;;21.02;12.68;;;-1.50;99.90;;;;;;5074613;28;20051;-76
2021/01/29 02:10:06;;;;;;;20.35;12.30;;;-1.50;99.90;;;;;;5075748;28;20033;-76
2021/01/29 02:12:32;;;;;;;23.67;12.45;;;-1.50;99.90;;;;;;5075489;28;20103;-76
2021/01/29 02:14:57;;;;;;;24.90;11.90;;;-1.50;99.90;;;;;;5075193;28;20096;-76
2021/01/29 02:18:00;;;;;;;31.52;12.48;;;-1.40;99.90;;;;;;5075356;28;20035;-76
2021/01/29 02:20:35;;;;;;;19.88;11.38;;;-1.40;99.90;;;;;;5075432;28;20028;-76
2021/01/29 02:23:19;;;;;;;22.98;12.68;;;-1.40;99.90;;;;;;5075302;28;20029;-76
2021/01/29 02:26:18;;;;;;;22.15;13.27;;;-1.40;99.90;;;;;;5075090;28;20012;-76
2021/01/29 02:29:10;;;;;;;26.02;12.80;;;-1.40;99.90;;;;;;5079427;28;20020;-76
2021/01/29 02:32:00;;;;;;;24.95;12.90;;;-1.40;99.90;;;;;;5095460;28;20672;-77
2021/01/29 02:35:03;;;;;;;21.63;10.98;;;-1.40;99.90;;;;;;5095194;28;20484;-76
2021/01/29 02:38:06;;;;;;;30.60;11.50;;;-1.40;99.90;;;;;;5095144;28;20431;-76
2021/01/29 02:41:05;;;;;;;18.13;10.73;;;-1.40;99.90;;;;;;5075032;28;20023;-77
2021/01/29 02:44:01;;;;;;;19.75;10.75;;;-1.40;99.90;;;;;;5074832;28;20028;-76
2021/01/29 02:46:29;;;;;;;25.85;12.15;;;-1.40;99.90;;;;;;5074859;28;20029;-76
2021/01/29 02:49:05;;;;;;;23.27;11.15;;;-1.40;99.90;;;;;;5075034;28;20024;-77
2021/01/29 02:51:53;;;;;;;26.92;12.02;;;-1.40;99.90;;;;;;5074890;28;20028;-76
2021/01/29 02:54:25;;;;;;;22.63;10.63;;;-1.40;99.90;;;;;;5074466;28;20480;-76
2021/01/29 02:56:59;;;;;;;17.33;11.50;;;-1.30;99.90;;;;;;5074680;28;20707;-76
2021/01/29 02:59:34;;;;;;;18.27;11.27;;;-1.40;99.90;;;;;;5084377;28;20044;-76
2021/01/29 03:02:06;;;;;;;22.55;11.10;;;-1.30;99.90;;;;;;5093659;28;20549;-77
2021/01/29 03:04:46;;;;;;;26.58;11.02;;;-1.30;99.90;;;;;;5094666;28;20407;-76
2021/01/29 03:07:26;;;;;;;23.83;11.50;;;-1.20;99.90;;;;;;5093466;28;20047;-77
2021/01/29 03:09:56;;;;;;;20.75;9.45;;;-1.20;99.90;;;;;;5074737;28;20027;-77
2021/01/29 03:12:29;;;;;;;19.02;10.50;;;-1.20;99.90;;;;;;5074276;28;20026;-76
2021/01/29 03:14:59;;;;;;;18.13;11.43;;;-1.20;99.90;;;;;;5072817;28;20032;-76
2021/01/29 03:17:35;;;;;;;19.10;10.63;;;-1.30;99.90;;;;;;5074278;28;20408;-76
2021/01/29 03:20:02;;;;;;;15.88;10.23;;;-1.30;99.90;;;;;;5090752;28;20370;-76
2021/01/29 03:22:33;;;;;;;20.65;9.95;;;-1.30;99.90;;;;;;5094474;28;20473;-76
2021/01/29 03:25:06;;;;;;;16.30;9.70;;;-1.30;99.90;;;;;;5094330;28;20491;-76
2021/01/29 03:27:46;;;;;;;14.00;9.70;;;-1.30;99.90;;;;;;5092136;28;20115;-76
2021/01/29 03:30:18;;;;;;;21.33;10.85;;;-1.30;99.90;;;;;;5076888;28;20058;-76
2021/01/29 03:32:49;;;;;;;21.00;12.05;;;-1.30;99.90;;;;;;5074047;28;20021;-76
2021/01/29 03:35:22;;;;;;;17.13;10.40;;;-1.30;99.90;;;;;;5073947;28;20427;-76
2021/01/29 03:37:57;;;;;;;15.68;10.20;;;-1.30;99.90;;;;;;5076049;28;20071;-76
2021/01/29 03:40:23;;;;;;;17.98;9.95;;;-1.40;99.90;;;;;;5092959;28;20392;-76
2021/01/29 03:42:56;;;;;;;15.82;9.50;;;-1.40;99.90;;;;;;5092885;28;20020;-76
2021/01/29 03:46:01;;;;;;;21.55;10.23;;;-1.40;99.90;;;;;;5092726;28;20166;-76
2021/01/29 03:48:39;;;;;;;21.90;9.43;;;-1.40;99.90;;;;;;5089034;28;20039;-76
2021/01/29 03:51:10;;;;;;;14.05;9.23;;;-1.40;99.90;;;;;;5073699;28;20028;-76
2021/01/29 03:53:50;;;;;;;19.80;10.27;;;-1.40;99.90;;;;;;5073511;28;20032;-76
2021/01/29 03:56:37;;;;;;;15.88;8.63;;;-1.30;99.90;;;;;;5073613;28;20028;-76
2021/01/29 03:59:19;;;;;;;15.23;9.10;;;-1.30;99.90;;;;;;5078930;28;20024;-76
2021/01/29 04:02:03;;;;;;;18.10;8.52;;;-1.40;99.90;;;;;;5093825;28;20476;-77
2021/01/29 04:04:32;;;;;;;16.38;9.45;;;-1.40;99.90;;;;;;5093504;28;20028;-76
2021/01/29 04:07:15;;;;;;;24.25;9.73;;;-1.40;99.90;;;;;;5092315;28;20020;-77
2021/01/29 04:10:00;;;;;;;19.52;9.43;;;-1.40;99.90;;;;;;5075280;28;20092;-77
2021/01/29 04:12:50;;;;;;;17.85;7.85;;;-1.40;99.90;;;;;;5073224;28;20063;-76
2021/01/29 04:15:37;;;;;;;13.55;7.45;;;-1.40;99.90;;;;;;5072920;28;20033;-76
2021/01/29 04:18:14;;;;;;;19.38;7.85;;;-1.40;99.90;;;;;;5073033;28;20113;-76
2021/01/29 04:20:40;;;;;;;22.30;8.10;;;-1.40;99.90;;;;;;5092879;28;20032;-76
2021/01/29 04:23:12;;;;;;;12.93;7.72;;;-1.30;99.90;;;;;;5090293;28;20016;-76
2021/01/29 04:25:46;;;;;;;15.35;7.72;;;-1.30;99.90;;;;;;5093120;28;20069;-76
2021/01/29 04:28:18;;;;;;;13.77;6.43;;;-1.30;99.90;;;;;;5093407;28;20108;-76
2021/01/29 04:30:47;;;;;;;16.90;8.55;;;-1.30;99.90;;;;;;5091817;28;20031;-76
2021/01/29 04:33:21;;;;;;;18.58;7.13;;;-1.30;99.90;;;;;;5092622;28;20438;-76
2021/01/29 04:35:47;;;;;;;15.75;6.70;;;-1.20;99.90;;;;;;5071459;28;20024;-76
2021/01/29 04:38:35;;;;;;;12.98;6.63;;;-1.20;99.90;;;;;;5071451;28;20028;-76
2021/01/29 04:41:03;;;;;;;24.00;6.85;;;-1.20;99.90;;;;;;5072739;28;20480;-77
2021/01/29 04:43:39;;;;;;;48.08;9.15;;;-1.20;99.90;;;;;;5072551;28;20028;-76
2021/01/29 04:46:31;;;;;;;15.40;5.32;;;-1.20;99.90;;;;;;5071369;28;20047;-76
2021/01/29 04:49:17;;;;;;;12.82;5.15;;;-1.10;99.90;;;;;;5072988;28;20082;-76
2021/01/29 04:52:02;;;;;;;7.70;4.53;;;-1.00;99.90;;;;;;5071342;28;20488;-76
2021/01/29 04:54:42;;;;;;;9.73;4.07;;;-1.00;99.90;;;;;;5082975;28;20028;-76
2021/01/29 04:57:37;;;;;;;16.15;4.22;;;-1.00;99.90;;;;;;5072362;28;20029;-76
2021/01/29 05:00:29;;;;;;;13.40;4.13;;;-1.00;99.90;;;;;;5072477;28;20021;-76
2021/01/29 05:03:26;;;;;;;27.38;4.90;;;-0.90;99.90;;;;;;5071027;28;20489;-76
2021/01/29 05:06:04;;;;;;;7.50;3.92;;;-0.90;99.90;;;;;;5085011;28;20107;-76
2021/01/29 05:08:44;;;;;;;21.45;4.80;;;-0.80;99.90;;;;;;5090473;28;20514;-76
2021/01/29 05:11:41;;;;;;;13.15;4.40;;;-0.80;99.90;;;;;;5092481;28;20123;-76
2021/01/29 05:14:22;;;;;;;10.13;3.58;;;-0.80;99.90;;;;;;5083376;28;20412;-76
2021/01/29 05:17:30;;;;;;;9.40;3.95;;;-0.80;99.90;;;;;;5091208;28;20024;-77
2021/01/29 05:20:11;;;;;;;18.92;4.47;;;-0.80;99.90;;;;;;5075513;28;20033;-76
2021/01/29 05:22:55;;;;;;;14.23;3.78;;;-0.80;99.90;;;;;;5071954;28;20545;-76
2021/01/29 05:25:39;;;;;;;9.07;3.90;;;-0.70;99.90;;;;;;5070559;28;20044;-76
2021/01/29 05:28:23;;;;;;;18.50;3.78;;;-0.80;99.90;;;;;;5072084;28;20050;-76
2021/01/29 05:30:51;;;;;;;8.60;3.53;;;-0.80;99.90;;;;;;5070610;28;20032;-77
2021/01/29 05:33:50;;;;;;;12.90;3.63;;;-0.70;99.90;;;;;;5071136;28;20028;-76
2021/01/29 05:36:46;;;;;;;10.90;3.47;;;-0.70;99.90;;;;;;5070690;28;20496;-76
2021/01/29 05:39:15;;;;;;;9.52;3.83;;;-0.70;99.90;;;;;;5070714;28;20058;-76
2021/01/29 05:42:08;;;;;;;14.45;3.75;;;-0.70;99.90;;;;;;5070542;28;20476;-76
2021/01/29 05:44:42;;;;;;;15.93;4.35;;;-0.70;99.90;;;;;;5071641;28;20145;-76
2021/01/29 05:47:29;;;;;;;18.25;4.15;;;-0.70;99.90;;;;;;5070595;28;20025;-76
2021/01/29 05:50:28;;;;;;;13.80;3.92;;;-0.60;99.90;;;;;;5087052;28;20462;-76
2021/01/29 05:53:21;;;;;;;10.65;3.78;;;-0.60;99.90;;;;;;5090559;28;20020;-76
2021/01/29 05:56:01;;;;;;;10.13;3.20;;;-0.60;99.90;;;;;;5090336;28;20021;-75
2021/01/29 05:58:53;;;;;;;11.45;3.10;;;-0.60;99.90;;;;;;5088695;28;20381;-76
2021/01/29 06:01:33;;;;;;;10.93;3.60;;;-0.50;99.90;;;;;;5071013;28;20037;-76
2021/01/29 06:04:10;;;;;;;14.32;3.10;;;-0.50;99.90;;;;;;5070107;28;20162;-76
2021/01/29 06:06:53;;;;;;;9.32;3.50;;;-0.50;99.90;;;;;;5070370;28;20052;-76
2021/01/29 06:09:31;;;;;;;14.07;3.25;;;-0.50;99.90;;;;;;5085777;28;20130;-76
2021/01/29 06:12:08;;;;;;;15.57;3.83;;;-0.50;99.90;;;;;;5091629;28;20615;-76
2021/01/29 06:14:55;;;;;;;8.98;3.17;;;-0.50;99.90;;;;;;5090048;28;20036;-76
2021/01/29 06:17:45;;;;;;;10.30;3.22;;;-0.50;99.90;;;;;;5090379;28;20036;-76
2021/01/29 06:20:46;;;;;;;6.85;2.83;;;-0.50;99.90;;;;;;5071186;28;20100;-76
2021/01/29 06:23:31;;;;;;;16.05;3.00;;;-0.50;99.90;;;;;;5071251;28;20029;-76
2021/01/29 06:26:22;;;;;;;7.18;2.95;;;-0.50;99.90;;;;;;5069978;28;20388;-76
2021/01/29 06:29:28;;;;;;;14.65;3.03;;;-0.50;99.90;;;;;;5075663;28;20048;-76
2021/01/29 06:32:11;;;;;;;7.43;2.83;;;-0.40;99.90;;;;;;5091510;28;20035;-76
2021/01/29 06:34:49;;;;;;;9.23;2.88;;;-0.40;99.90;;;;;;5091386;28;20028;-76
2021/01/29 06:37:58;;;;;;;18.90;3.40;;;-0.40;99.90;;;;;;5091525;28;20396;-76
2021/01/29 06:40:46;;;;;;;16.42;2.83;;;-0.40;99.90;;;;;;5070119;28;20024;-76
2021/01/29 06:43:30;;;;;;;11.20;2.35;;;-0.40;99.90;;;;;;5071913;28;20103;-76
2021/01/29 06:46:09;;;;;;;11.05;2.97;;;-0.40;99.90;;;;;;5074746;28;20487;-76
2021/01/29 06:48:59;;;;;;;5.57;1.98;;;-0.40;99.90;;;;;;5080374;28;20027;-76
2021/01/29 06:51:49;;;;;;;6.35;1.90;;;-0.40;99.90;;;;;;5095277;28;20032;-77
2021/01/29 06:54:32;;;;;;;9.10;2.08;;;-0.40;99.90;;;;;;5094359;28;20027;-77
2021/01/29 06:57:12;;;;;;;10.07;1.87;;;-0.40;99.90;;;;;;5095137;28;20707;-77
2021/01/29 07:00:08;;;;;;;15.63;1.88;;;-0.40;99.90;;;;;;5083238;28;20024;-76
2021/01/29 07:02:52;;;;;;;5.53;1.55;;;-0.30;99.90;;;;;;5074561;28;20017;-76
2021/01/29 07:05:38;;;;;;;6.35;1.90;;;-0.30;99.90;;;;;;5074529;28;20052;-77
2021/01/29 07:08:23;;;;;;;8.32;1.50;;;-0.30;99.90;;;;;;5078598;28;20426;-76
2021/01/29 07:10:57;;;;;;;9.32;2.03;;;-0.30;99.90;;;;;;5094785;28;20039;-76
2021/01/29 07:13:42;;;;;;;4.65;1.63;;;-0.30;99.90;;;;;;5093530;28;20036;-77
2021/01/29 07:16:34;;;;;;;11.00;4.03;;;-0.30;99.90;;;;;;5094870;28;20032;-77
2021/01/29 07:19:40;;;;;;;6.55;1.58;;;-0.30;99.90;;;;;;5084596;28;20364;-77
2021/01/29 07:22:15;;;;;;;9.77;1.63;;;-0.30;99.90;;;;;;5073936;28;20029;-77
2021/01/29 07:25:00;;;;;;;4.82;1.30;;;-0.30;99.90;;;;;;5073742;28;20020;-76
2021/01/29 07:27:31;;;;;;;5.95;2.17;;;-0.30;99.90;;;;;;5072968;28;20074;-77
2021/01/29 07:30:36;;;;;;;7.18;2.08;;;-0.30;99.90;;;;;;5074207;28;20024;-76
2021/01/29 07:33:17;;;;;;;7.57;1.70;;;-0.30;99.90;;;;;;5074063;28;20492;-76
2021/01/29 07:36:07;;;;;;;11.23;1.75;;;-0.30;99.90;;;;;;5072728;28;20025;-77
2021/01/29 07:38:48;;;;;;;12.85;1.65;;;-0.30;99.90;;;;;;5081245;28;20032;-77
2021/01/29 07:41:22;;;;;;;6.57;1.70;;;-0.30;99.90;;;;;;5092943;28;20020;-77
2021/01/29 07:44:18;;;;;;;22.15;2.33;;;-0.20;99.90;;;;;;5090243;28;20067;-76
2021/01/29 07:47:07;;;;;;;15.15;1.40;;;-0.20;99.90;;;;;;5072667;28;20021;-76
2021/01/29 07:49:43;;;;;;;8.98;1.73;;;-0.20;99.90;;;;;;5073820;28;20099;-77
2021/01/29 07:52:24;;;;;;;8.43;2.20;;;-0.20;99.90;;;;;;5087884;28;20107;-77
2021/01/29 07:54:52;;;;;;;7.97;1.40;;;-0.10;99.90;;;;;;5087482;28;20443;-76
2021/01/29 07:57:39;;;;;;;6.53;1.40;;;-0.10;99.90;;;;;;5092564;28;20085;-77
2021/01/29 08:00:17;;;;;;;5.88;1.40;;;0.00;99.90;;;;;;5075695;28;20020;-77
2021/01/29 08:03:13;;;;;;;6.85;1.50;;;0.00;99.90;;;;;;5084397;28;20062;-77
2021/01/29 08:05:39;;;;;;;8.40;1.60;;;0.00;99.90;;;;;;5073042;28;20024;-76
2021/01/29 08:08:21;;;;;;;9.05;1.63;;;0.00;99.90;;;;;;5073263;28;20043;-76
2021/01/29 08:10:50;;;;;;;5.78;1.50;;;0.00;99.90;;;;;;5072050;28;20029;-77
2021/01/29 08:13:31;;;;;;;9.55;1.55;;;0.10;99.90;;;;;;5073196;28;20039;-77
2021/01/29 08:16:16;;;;;;;7.25;1.88;;;0.10;99.90;;;;;;5072885;28;20039;-77
2021/01/29 08:19:04;;;;;;;13.23;1.52;;;0.10;99.90;;;;;;5073003;28;20028;-76
2021/01/29 08:21:44;;;;;;;9.35;2.25;;;0.10;99.90;;;;;;5073071;28;20513;-75
2021/01/29 08:24:38;;;;;;;6.68;1.40;;;0.10;99.90;;;;;;5085983;28;20028;-75
2021/01/29 08:27:27;;;;;;;14.00;1.50;;;0.20;99.90;;;;;;5093296;28;20020;-76
2021/01/29 08:30:17;;;;;;;1.70;0.98;;;0.10;99.90;;;;;;5093187;28;20073;-76
2021/01/29 08:33:11;;;;;;;4.30;1.10;;;0.20;99.90;;;;;;5093019;28;20026;-77
2021/01/29 08:36:01;;;;;;;6.32;1.80;;;0.20;99.90;;;;;;5083694;28;20024;-77
2021/01/29 08:38:59;;;;;;;4.25;1.55;;;0.20;99.90;;;;;;5084932;28;20036;-76
2021/01/29 08:41:53;;;;;;;5.88;1.52;;;0.20;99.90;;;;;;5069749;28;20751;-76
2021/01/29 08:44:37;;;;;;;;;;;0.20;99.90;;;;;;5087666;28;20083;-76
2021/01/29 08:47:20;;;;;;;6.28;1.42;;;0.20;99.90;;;;;;5072871;28;19913;-76
2021/01/29 08:49:57;;;;;;;4.75;0.95;;;0.20;99.90;;;;;;5071232;28;20032;-77
2021/01/29 08:52:59;;;;;;;6.10;1.60;;;0.20;99.90;;;;;;5071141;28;20446;-76
2021/01/29 08:55:39;;;;;;;7.00;1.48;;;0.20;99.90;;;;;;5070914;28;20032;-77
2021/01/29 08:58:19;;;;;;;17.95;2.38;;;0.30;99.90;;;;;;5072442;28;20025;-76
2021/01/29 09:00:45;;;;;;;15.30;2.22;;;0.30;99.90;;;;;;5072373;28;20025;-76
2021/01/29 09:03:29;;;;;;;5.68;1.52;;;0.30;99.90;;;;;;5074108;28;20012;-76
2021/01/29 09:06:23;;;;;;;12.07;2.25;;;0.30;99.90;;;;;;5092186;28;20020;-77
2021/01/29 09:09:03;;;;;;;;;;;0.40;99.90;;;;;;5092674;28;20078;-76
2021/01/29 09:11:49;;;;;;;3.17;1.40;;;0.30;99.90;;;;;;5092414;28;19904;-76
2021/01/29 09:14:27;;;;;;;5.07;1.63;;;0.30;99.90;;;;;;5083431;28;20024;-77
2021/01/29 09:17:01;;;;;;;17.23;2.60;;;0.30;99.90;;;;;;5070929;28;20511;-76
2021/01/29 09:19:27;;;;;;;11.27;1.90;;;0.30;99.90;;;;;;5071920;28;20074;-78
2021/01/29 09:22:29;;;;;;;11.70;1.95;;;0.30;99.90;;;;;;5072098;28;20427;-77
2021/01/29 09:25:16;;;;;;;8.32;1.35;;;0.40;99.90;;;;;;5091147;28;20089;-78
2021/01/29 09:27:47;;;;;;;4.97;1.33;;;0.30;99.90;;;;;;5090951;28;20032;-78
2021/01/29 09:30:16;;;;;;;10.43;1.30;;;0.40;99.90;;;;;;5092042;28;20110;-79
2021/01/29 09:32:56;;;;;;;5.57;2.15;;;0.40;99.90;;;;;;5092145;28;20492;-79
2021/01/29 09:35:47;;;;;;;14.32;1.75;;;0.30;99.90;;;;;;5070685;28;20492;-78
2021/01/29 09:38:18;;;;;;;3.92;1.40;;;0.40;99.90;;;;;;5072075;28;20044;-78
2021/01/29 09:40:49;;;;;;;7.72;1.40;;;0.30;99.90;;;;;;5072089;28;20397;-78
2021/01/29 09:43:56;;;;;;;2.90;1.10;;;0.50;99.90;;;;;;5071880;28;20099;-79
2021/01/29 09:46:35;;;;;;;14.45;1.40;;;0.40;99.90;;;;;;5069027;28;20036;-79
2021/01/29 09:49:18;;;;;;;9.05;1.45;;;0.40;99.90;;;;;;5074230;28;20035;-78
2021/01/29 09:51:48;;;;;;;3.92;1.27;;;0.50;99.90;;;;;;5091935;28;20020;-79
2021/01/29 09:54:33;;;;;;;4.53;1.60;;;0.50;99.90;;;;;;5077570;28;20111;-78
2021/01/29 09:57:09;;;;;;;13.40;1.65;;;0.60;99.90;;;;;;5071686;28;20558;-79
2021/01/29 09:59:58;;;;;;;4.50;1.45;;;0.70;99.90;;;;;;5074916;28;20032;-79
2021/01/29 10:02:29;;;;;;;11.57;1.92;;;0.70;99.90;;;;;;5069487;28;20054;-78
2021/01/29 10:05:16;;;;;;;6.13;2.25;;;0.60;99.90;;;;;;5069747;28;20392;-78
2021/01/29 10:07:52;;;;;;;3.75;1.52;;;0.70;99.90;;;;;;5072310;28;20139;-78
2021/01/29 10:10:47;;;;;;;12.35;1.38;;;0.60;99.90;;;;;;5091478;28;20020;-79
2021/01/29 10:13:42;;;;;;;5.30;1.60;;;0.60;99.90;;;;;;5090051;28;20040;-78
2021/01/29 10:16:19;;;;;;;5.90;1.73;;;0.60;99.90;;;;;;5090341;28;20399;-78
2021/01/29 10:19:22;;;;;;;11.00;1.50;;;0.50;99.90;;;;;;5093078;28;20023;-78
2021/01/29 10:21:57;;;;;;;7.03;1.80;;;0.50;99.90;;;;;;5096147;28;20365;-78
2021/01/29 10:25:00;;;;;;;5.07;1.83;;;0.50;99.90;;;;;;5094239;28;20385;-78
2021/01/29 10:27:51;;;;;;;6.25;1.80;;;0.50;99.90;;;;;;5095697;28;20028;-78
2021/01/29 10:30:42;;;;;;;7.97;1.58;;;0.50;99.90;;;;;;5094816;28;20095;-78
2021/01/29 10:33:13;;;;;;;12.57;1.77;;;0.50;99.90;;;;;;5074721;28;20100;-78
2021/01/29 10:36:00;;;;;;;11.02;2.60;;;0.50;99.90;;;;;;5074869;28;20013;-78
2021/01/29 10:38:44;;;;;;;10.05;2.70;;;0.50;99.90;;;;;;5073830;28;20032;-78
2021/01/29 10:41:19;;;;;;;5.28;1.70;;;0.50;99.90;;;;;;5093714;28;20020;-77
2021/01/29 10:44:19;;;;;;;3.38;1.70;;;0.50;99.90;;;;;;5094021;28;20609;-77
2021/01/29 10:46:59;;;;;;;5.28;2.03;;;0.50;99.90;;;;;;5088914;28;20098;-78
2021/01/29 10:50:05;;;;;;;5.22;1.85;;;0.50;99.90;;;;;;5085392;28;20431;-78
2021/01/29 10:52:41;;;;;;;18.83;2.90;;;0.60;99.90;;;;;;5082248;28;20372;-78
2021/01/29 10:55:24;;;;;;;6.82;2.58;;;0.60;99.90;;;;;;5091746;28;20031;-77
2021/01/29 10:57:55;;;;;;;11.27;2.78;;;0.60;99.90;;;;;;5087952;28;20028;-77
2021/01/29 11:00:28;;;;;;;6.00;2.20;;;0.60;99.90;;;;;;5075440;28;20025;-79
2021/01/29 11:03:06;;;;;;;5.07;1.95;;;0.60;99.90;;;;;;5073305;28;20074;-78
2021/01/29 11:05:34;;;;;;;7.75;2.58;;;0.60;99.90;;;;;;5074513;28;20016;-77
2021/01/29 11:08:28;;;;;;;4.53;2.22;;;0.60;99.90;;;;;;5074542;28;20051;-77
2021/01/29 11:11:06;;;;;;;;;;;0.60;99.90;;;;;;5073604;28;20020;-78
2021/01/29 11:14:16;;;;;;;5.25;2.10;;;0.60;99.90;;;;;;5083258;28;19909;-77
2021/01/29 11:17:03;;;;;;;3.95;2.08;;;0.60;99.90;;;;;;5074242;28;20044;-78
2021/01/29 11:19:50;;;;;;;7.97;2.35;;;0.60;99.90;;;;;;5072460;28;20034;-77
2021/01/29 11:22:42;;;;;;;9.35;2.17;;;0.50;99.90;;;;;;5073041;28;20032;-77
2021/01/29 11:25:28;;;;;;;10.18;2.33;;;0.50;99.90;;;;;;5073758;28;20071;-76
2021/01/29 11:28:17;;;;;;;15.18;2.45;;;0.60;99.90;;;;;;5081301;28;20379;-77
2021/01/29 11:31:15;;;;;;;6.78;2.80;;;0.50;99.90;;;;;;5092837;28;20028;-76
2021/01/29 11:33:45;;;;;;;11.85;3.95;;;0.50;99.90;;;;;;5077448;28;20025;-77
2021/01/29 11:36:46;;;;;;;14.40;4.05;;;0.50;99.90;;;;;;5073938;28;20442;-76
2021/01/29 11:39:34;;;;;;;8.50;4.03;;;0.50;99.90;;;;;;5073725;28;20115;-77
2021/01/29 11:42:08;;;;;;;15.95;5.63;;;0.50;99.90;;;;;;5072578;28;20021;-76
2021/01/29 11:44:42;;;;;;;15.65;5.28;;;0.60;99.90;;;;;;5086536;28;20024;-77
2021/01/29 11:47:17;;;;;;;14.13;5.20;;;0.60;99.90;;;;;;5114386;28;20475;-77
2021/01/29 11:50:18;;;;;;;18.88;5.90;;;0.60;99.90;;;;;;5114121;28;20031;-76
2021/01/29 11:52:49;;;;;;;10.63;4.28;;;0.70;99.90;;;;;;5102466;28;20097;-77
2021/01/29 11:55:20;;;;;;;17.88;5.70;;;0.70;99.90;;;;;;5093691;28;20027;-76
2021/01/29 11:58:11;;;;;;;14.15;4.82;;;0.70;99.90;;;;;;5093473;28;20073;-77
2021/01/29 12:01:05;;;;;;;14.95;3.70;;;0.70;99.90;;;;;;5092065;28;20032;-78
2021/01/29 12:03:59;;;;;;;11.57;4.57;;;0.70;99.90;;;;;;5079851;28;20028;-77
2021/01/29 12:06:37;;;;;;;7.57;2.80;;;0.70;99.90;;;;;;5073728;28;20383;-77
2021/01/29 12:09:05;;;;;;;3.28;2.25;;;0.80;99.90;;;;;;5073238;28;20063;-77
2021/01/29 12:11:40;;;;;;;9.88;2.65;;;0.80;99.90;;;;;;5073201;28;20032;-77
2021/01/29 12:14:11;;;;;;;17.50;2.35;;;0.80;99.90;;;;;;5090109;28;20055;-77
2021/01/29 12:16:38;;;;;;;4.40;2.20;;;0.80;99.90;;;;;;5092860;28;20028;-77
2021/01/29 12:19:07;;;;;;;4.70;2.67;;;0.70;99.90;;;;;;5093326;28;20024;-78
2021/01/29 12:21:39;;;;;;;7.63;2.65;;;0.70;99.90;;;;;;5093408;28;20054;-78
2021/01/29 12:24:27;;;;;;;4.38;2.63;;;0.70;99.90;;;;;;5091265;28;20032;-78
2021/01/29 12:27:07;;;;;;;4.97;2.40;;;0.70;99.90;;;;;;5091931;28;20115;-78
2021/01/29 12:30:00;;;;;;;7.75;2.65;;;0.70;99.90;;;;;;5093244;28;20031;-77
2021/01/29 12:32:45;;;;;;;10.32;2.30;;;0.70;99.90;;;;;;5093265;28;20099;-77
2021/01/29 12:35:38;;;;;;;7.15;2.33;;;0.60;99.90;;;;;;5071655;28;20028;-78
2021/01/29 12:38:19;;;;;;;8.93;2.47;;;0.60;99.90;;;;;;5071603;28;20042;-78
2021/01/29 12:40:51;;;;;;;6.50;2.45;;;0.60;99.90;;;;;;5072887;28;20016;-78
2021/01/29 12:43:36;;;;;;;10.05;2.85;;;0.60;99.90;;;;;;5083277;28;20535;-78
2021/01/29 12:46:34;;;;;;;9.60;2.72;;;0.60;99.90;;;;;;5091623;28;20107;-78
2021/01/29 12:49:08;;;;;;;5.68;2.65;;;0.60;99.90;;;;;;5073896;28;20036;-77
2021/01/29 12:51:50;;;;;;;6.50;2.75;;;0.70;99.90;;;;;;5071512;28;20021;-78
2021/01/29 12:54:47;;;;;;;9.82;2.53;;;0.60;99.90;;;;;;5072391;28;20060;-78
2021/01/29 12:57:15;;;;;;;3.97;2.67;;;0.60;99.90;;;;;;5073987;28;20029;-78
2021/01/29 12:59:55;;;;;;;5.18;2.72;;;0.60;99.90;;;;;;5079511;28;21469;-78
2021/01/29 13:02:32;;;;;;;9.80;3.13;;;0.70;99.90;;;;;;5085822;28;20487;-78
2021/01/29 13:05:25;;;;;;;12.77;3.38;;;0.60;99.90;;;;;;5092810;28;20484;-78
2021/01/29 13:08:08;;;;;;;6.10;3.05;;;0.60;99.90;;;;;;5090742;28;20032;-77
2021/01/29 13:10:54;;;;;;;11.50;3.28;;;0.60;99.90;;;;;;5093034;28;20043;-77
2021/01/29 13:13:32;;;;;;;4.68;2.60;;;0.60;99.90;;;;;;5092051;28;20032;-77
2021/01/29 13:16:21;;;;;;;19.27;3.50;;;0.60;99.90;;;;;;5092166;28;20036;-77
2021/01/29 13:18:54;;;;;;;9.48;2.78;;;0.60;99.90;;;;;;5083961;28;20074;-77
2021/01/29 13:21:34;;;;;;;12.88;3.15;;;0.60;99.90;;;;;;5072744;28;20123;-77
2021/01/29 13:24:06;;;;;;;8.25;3.03;;;0.60;99.90;;;;;;5070804;28;20032;-77
2021/01/29 13:26:39;;;;;;;11.93;3.88;;;0.60;99.90;;;;;;5072053;28;20485;-77
2021/01/29 13:29:15;;;;;;;6.35;3.20;;;0.60;99.90;;;;;;5089498;28;20115;-78
2021/01/29 13:31:41;;;;;;;7.40;2.80;;;0.60;99.90;;;;;;5090953;28;20028;-79
2021/01/29 13:34:15;;;;;;;9.48;2.90;;;0.70;99.90;;;;;;5091108;28;20062;-78
2021/01/29 13:36:59;;;;;;;7.28;2.80;;;0.70;99.90;;;;;;5093387;28;20024;-79
2021/01/29 13:39:29;;;;;;;14.63;3.33;;;0.70;99.90;;;;;;5075365;28;20039;-79
2021/01/29 13:41:58;;;;;;;8.35;3.40;;;0.70;99.90;;;;;;5074095;28;20028;-79
2021/01/29 13:44:34;;;;;;;10.48;3.45;;;0.60;99.90;;;;;;5073413;28;20039;-78
2021/01/29 13:47:00;;;;;;;8.07;3.70;;;0.70;99.90;;;;;;5072783;28;20042;-78
2021/01/29 13:49:37;;;;;;;7.00;3.30;;;0.70;99.90;;;;;;5087957;28;20038;-78